Karnes City, TX (78118)

2:25 PM CDT on April 18, 2015 (GMT -0500)
Karnes County | | Change Station
CLOSE
Current Station
Personal Weather Station
Location: Karnes City, TX
Elevation: 381 ft
Nearby Weather Stations

Elev 381 ft 28.88 °N, 97.86 °W | Updated 15 seconds ago

Overcast
Overcast
69.4 °F
Feels Like 69.4 °F
N
0.0
Wind Variable Wind from NE
Gusts 0.0 mph

Today
High -- | Low -- °F
--% Chance of Precip.
Yesterday
High -- | Low -- °F
Precip. -- in
7:02 AM 7:59 PM
New Moon, 0% visible
Pressure 29.88 in
Visibility 1.5 miles
Clouds Mostly Cloudy 1500 ft
Overcast 2800 ft
Dew Point 68 °F
Humidity 94%
Rainfall 0.00 in
Snow Depth Not available.
UV 12.1 out of 12
Pollen 5.40 out of 12
Air Quality Not available.
Flu Activity Local Activity
METAR KBEA 181920Z AUTO 17005KT 1 1/2SM +TSRA BKN015 OVC028 21/21 A2988 RMK AO2 VIS 1/2V5 LTG DSNT ALQS P0014 T02070207

More Conditions Fewer Conditions

Pressure 29.88 in
Visibility 1.5 miles
Clouds Mostly Cloudy 1500 ft
Overcast 2800 ft
Dew Point 68 °F
Humidity 94%
Rainfall 0.00 in
Snow Depth Not available.
UV 12.1 out of 12
Pollen 5.40 out of 12
Air Quality Not available.
Flu Activity Local Activity
METAR KBEA 181920Z AUTO 17005KT 1 1/2SM +TSRA BKN015 OVC028 21/21 A2988 RMK AO2 VIS 1/2V5 LTG DSNT ALQS P0014 T02070207

More Conditions Fewer Conditions

Nowcast | as of 1:58 PM CDT on April 18, 2015

Through 3 PM...isolated showers and thunderstorms will move to the east. Spotty rainfall amounts up to one quarter inch are possible.

×

10-Day Weather Forecast

Almanac

Astronomy

Apr. 18, 2015 Rise Set
Actual Time
Civil Twilight
Nautical Twilight
Astronomical Twilight
Moon
Length of Visible Light
Length of Day
Tomorrow will be .
, % of the Moon is Illuminated

Today's Extremes

State Highs State Lows

Community

WunderPhotos

Upload Photos

1,814,501 photos uploaded!

WunderBlogs® & News

Nearby

Air Quality

  Air Quality AQ Index Pollutant
Not available.

Snow Depth

Station Depth Elevation

Earthquake Activity

City Distance Mag. Time & Date
Minimum magnitude displayed is 2.5.

Coastal Water Temperatures

Place Temperature

Stations

Nearby Weather Stations

Station Location Temp. Windchill Dew Point Humidity Wind Precip. Elev Updated Type